sensor_id;sensor_type;location;lat;lon;timestamp;temperature;humidity
13606;DHT22;6874;52.084;5.090;2022-08-23T00:01:30;21.90;68.70
13606;DHT22;6874;52.084;5.090;2022-08-23T00:03:59;22.00;68.80
13606;DHT22;6874;52.084;5.090;2022-08-23T00:06:26;22.00;68.90
13606;DHT22;6874;52.084;5.090;2022-08-23T00:08:52;21.90;68.80
13606;DHT22;6874;52.084;5.090;2022-08-23T00:13:57;21.90;68.80
13606;DHT22;6874;52.084;5.090;2022-08-23T00:16:23;21.80;68.90
13606;DHT22;6874;52.084;5.090;2022-08-23T00:18:49;21.80;68.70
13606;DHT22;6874;52.084;5.090;2022-08-23T00:21:15;21.80;69.00
13606;DHT22;6874;52.084;5.090;2022-08-23T00:23:40;21.80;69.00
13606;DHT22;6874;52.084;5.090;2022-08-23T00:26:06;21.70;68.90
13606;DHT22;6874;52.084;5.090;2022-08-23T00:28:32;21.70;69.00
13606;DHT22;6874;52.084;5.090;2022-08-23T00:30:57;21.70;69.10
13606;DHT22;6874;52.084;5.090;2022-08-23T00:33:24;21.70;69.10
13606;DHT22;6874;52.084;5.090;2022-08-23T00:35:50;21.70;69.30
13606;DHT22;6874;52.084;5.090;2022-08-23T00:38:16;21.70;69.30
13606;DHT22;6874;52.084;5.090;2022-08-23T00:40:46;21.60;69.30
13606;DHT22;6874;52.084;5.090;2022-08-23T00:43:15;21.60;69.30
13606;DHT22;6874;52.084;5.090;2022-08-23T00:49:17;21.60;69.30
13606;DHT22;6874;52.084;5.090;2022-08-23T00:51:57;21.50;69.30
13606;DHT22;6874;52.084;5.090;2022-08-23T00:54:26;21.50;69.20
13606;DHT22;6874;52.084;5.090;2022-08-23T00:56:55;21.50;69.40
13606;DHT22;6874;52.084;5.090;2022-08-23T00:59:21;21.50;69.40
13606;DHT22;6874;52.084;5.090;2022-08-23T01:01:47;21.50;69.40
13606;DHT22;6874;52.084;5.090;2022-08-23T01:04:13;21.50;69.50
13606;DHT22;6874;52.084;5.090;2022-08-23T01:06:54;21.50;69.50
13606;DHT22;6874;52.084;5.090;2022-08-23T01:09:22;21.40;69.50
13606;DHT22;6874;52.084;5.090;2022-08-23T01:11:59;21.40;69.40
13606;DHT22;6874;52.084;5.090;2022-08-23T01:14:43;21.40;69.60
13606;DHT22;6874;52.084;5.090;2022-08-23T01:17:18;21.40;69.70
13606;DHT22;6874;52.084;5.090;2022-08-23T01:20:12;21.40;69.50
13606;DHT22;6874;52.084;5.090;2022-08-23T01:22:50;21.30;69.50
13606;DHT22;6874;52.084;5.090;2022-08-23T01:25:21;21.40;69.70
13606;DHT22;6874;52.084;5.090;2022-08-23T01:27:47;21.30;69.70
13606;DHT22;6874;52.084;5.090;2022-08-23T01:30:17;21.30;69.70
13606;DHT22;6874;52.084;5.090;2022-08-23T01:32:48;21.30;69.70
13606;DHT22;6874;52.084;5.090;2022-08-23T01:35:15;21.30;69.80
13606;DHT22;6874;52.084;5.090;2022-08-23T01:37:41;21.30;69.90
13606;DHT22;6874;52.084;5.090;2022-08-23T01:40:07;21.30;70.00
13606;DHT22;6874;52.084;5.090;2022-08-23T01:42:33;21.30;69.90
13606;DHT22;6874;52.084;5.090;2022-08-23T01:44:59;21.20;69.80
13606;DHT22;6874;52.084;5.090;2022-08-23T01:47:24;21.20;69.90
13606;DHT22;6874;52.084;5.090;2022-08-23T01:49:50;21.20;69.90
13606;DHT22;6874;52.084;5.090;2022-08-23T01:52:16;21.20;69.90
13606;DHT22;6874;52.084;5.090;2022-08-23T01:54:41;21.20;69.90
13606;DHT22;6874;52.084;5.090;2022-08-23T01:57:07;21.20;69.90
13606;DHT22;6874;52.084;5.090;2022-08-23T01:59:35;21.10;69.80
13606;DHT22;6874;52.084;5.090;2022-08-23T02:02:01;21.10;69.70
13606;DHT22;6874;52.084;5.090;2022-08-23T02:04:27;21.10;69.70
13606;DHT22;6874;52.084;5.090;2022-08-23T02:06:53;21.10;69.70
13606;DHT22;6874;52.084;5.090;2022-08-23T02:09:18;21.10;70.00
13606;DHT22;6874;52.084;5.090;2022-08-23T02:11:44;21.10;69.80
13606;DHT22;6874;52.084;5.090;2022-08-23T02:14:14;21.00;69.80
13606;DHT22;6874;52.084;5.090;2022-08-23T02:16:44;21.00;69.70
13606;DHT22;6874;52.084;5.090;2022-08-23T02:19:11;21.00;70.10
13606;DHT22;6874;52.084;5.090;2022-08-23T02:21:38;21.00;69.90
13606;DHT22;6874;52.084;5.090;2022-08-23T02:24:11;21.00;70.00
13606;DHT22;6874;52.084;5.090;2022-08-23T02:26:39;21.00;70.10
13606;DHT22;6874;52.084;5.090;2022-08-23T02:29:05;20.90;70.00
13606;DHT22;6874;52.084;5.090;2022-08-23T02:31:31;20.90;70.10
13606;DHT22;6874;52.084;5.090;2022-08-23T02:33:57;20.90;70.00
13606;DHT22;6874;52.084;5.090;2022-08-23T02:36:22;20.90;70.00
13606;DHT22;6874;52.084;5.090;2022-08-23T02:38:48;20.90;70.10
13606;DHT22;6874;52.084;5.090;2022-08-23T02:41:14;20.90;70.10
13606;DHT22;6874;52.084;5.090;2022-08-23T02:43:42;20.80;70.10
13606;DHT22;6874;52.084;5.090;2022-08-23T02:46:11;20.90;70.30
13606;DHT22;6874;52.084;5.090;2022-08-23T02:48:37;20.90;70.30
13606;DHT22;6874;52.084;5.090;2022-08-23T02:51:06;20.80;70.20
13606;DHT22;6874;52.084;5.090;2022-08-23T02:53:33;20.80;70.20
13606;DHT22;6874;52.084;5.090;2022-08-23T02:55:59;20.80;70.20
13606;DHT22;6874;52.084;5.090;2022-08-23T02:58:25;20.80;70.40
13606;DHT22;6874;52.084;5.090;2022-08-23T03:00:52;20.80;70.30
13606;DHT22;6874;52.084;5.090;2022-08-23T03:03:19;20.80;70.50
13606;DHT22;6874;52.084;5.090;2022-08-23T03:05:46;20.80;70.50
13606;DHT22;6874;52.084;5.090;2022-08-23T03:08:13;20.90;70.50
13606;DHT22;6874;52.084;5.090;2022-08-23T03:10:46;20.70;70.40
13606;DHT22;6874;52.084;5.090;2022-08-23T03:13:13;20.70;70.50
13606;DHT22;6874;52.084;5.090;2022-08-23T03:15:40;20.70;70.50
13606;DHT22;6874;52.084;5.090;2022-08-23T03:18:06;20.70;70.60
13606;DHT22;6874;52.084;5.090;2022-08-23T03:20:33;20.70;70.80
13606;DHT22;6874;52.084;5.090;2022-08-23T03:22:58;20.70;70.60
13606;DHT22;6874;52.084;5.090;2022-08-23T03:25:24;20.60;70.60
13606;DHT22;6874;52.084;5.090;2022-08-23T03:27:50;20.60;70.70
13606;DHT22;6874;52.084;5.090;2022-08-23T03:30:16;20.60;70.70
13606;DHT22;6874;52.084;5.090;2022-08-23T03:32:41;20.60;70.70
13606;DHT22;6874;52.084;5.090;2022-08-23T03:35:07;20.60;70.70
13606;DHT22;6874;52.084;5.090;2022-08-23T03:37:34;20.60;70.80
13606;DHT22;6874;52.084;5.090;2022-08-23T03:39:59;20.60;70.80
13606;DHT22;6874;52.084;5.090;2022-08-23T03:42:25;20.60;70.80
13606;DHT22;6874;52.084;5.090;2022-08-23T03:44:51;20.60;70.90
13606;DHT22;6874;52.084;5.090;2022-08-23T03:47:16;20.60;70.90
13606;DHT22;6874;52.084;5.090;2022-08-23T03:49:42;20.60;71.00
13606;DHT22;6874;52.084;5.090;2022-08-23T03:52:08;20.60;70.90
13606;DHT22;6874;52.084;5.090;2022-08-23T03:54:34;20.50;70.90
13606;DHT22;6874;52.084;5.090;2022-08-23T03:57:03;20.50;70.90
13606;DHT22;6874;52.084;5.090;2022-08-23T03:59:31;20.50;71.00
13606;DHT22;6874;52.084;5.090;2022-08-23T04:01:57;20.50;71.10
13606;DHT22;6874;52.084;5.090;2022-08-23T04:04:22;20.50;71.10
13606;DHT22;6874;52.084;5.090;2022-08-23T04:06:48;20.50;71.10
13606;DHT22;6874;52.084;5.090;2022-08-23T04:09:15;20.50;71.20
13606;DHT22;6874;52.084;5.090;2022-08-23T04:11:41;20.50;71.10
13606;DHT22;6874;52.084;5.090;2022-08-23T04:14:07;20.40;71.00
13606;DHT22;6874;52.084;5.090;2022-08-23T04:16:34;20.50;71.10
13606;DHT22;6874;52.084;5.090;2022-08-23T04:19:06;20.40;71.10
13606;DHT22;6874;52.084;5.090;2022-08-23T04:21:32;20.40;71.10
13606;DHT22;6874;52.084;5.090;2022-08-23T04:23:59;20.50;71.20
13606;DHT22;6874;52.084;5.090;2022-08-23T04:26:25;20.40;71.10
13606;DHT22;6874;52.084;5.090;2022-08-23T04:28:50;20.40;71.00
13606;DHT22;6874;52.084;5.090;2022-08-23T04:31:18;20.40;71.20
13606;DHT22;6874;52.084;5.090;2022-08-23T04:33:44;20.40;71.10
13606;DHT22;6874;52.084;5.090;2022-08-23T04:36:10;20.40;71.20
13606;DHT22;6874;52.084;5.090;2022-08-23T04:38:36;20.40;71.20
13606;DHT22;6874;52.084;5.090;2022-08-23T04:41:01;20.40;71.40
13606;DHT22;6874;52.084;5.090;2022-08-23T04:43:46;20.40;71.40
13606;DHT22;6874;52.084;5.090;2022-08-23T04:46:13;20.40;71.30
13606;DHT22;6874;52.084;5.090;2022-08-23T04:48:40;20.30;71.20
13606;DHT22;6874;52.084;5.090;2022-08-23T04:51:06;20.40;71.40
13606;DHT22;6874;52.084;5.090;2022-08-23T04:53:32;20.30;71.30
13606;DHT22;6874;52.084;5.090;2022-08-23T04:56:00;20.30;71.20
13606;DHT22;6874;52.084;5.090;2022-08-23T04:58:27;20.40;71.50
13606;DHT22;6874;52.084;5.090;2022-08-23T05:00:53;20.30;71.40
13606;DHT22;6874;52.084;5.090;2022-08-23T05:03:19;20.30;71.40
13606;DHT22;6874;52.084;5.090;2022-08-23T05:05:45;20.30;71.40
13606;DHT22;6874;52.084;5.090;2022-08-23T05:08:11;20.30;71.50
13606;DHT22;6874;52.084;5.090;2022-08-23T05:10:37;20.30;71.50
13606;DHT22;6874;52.084;5.090;2022-08-23T05:13:03;20.30;71.40
13606;DHT22;6874;52.084;5.090;2022-08-23T05:15:28;20.30;71.50
13606;DHT22;6874;52.084;5.090;2022-08-23T05:17:54;20.30;71.50
13606;DHT22;6874;52.084;5.090;2022-08-23T05:20:20;20.30;71.40
13606;DHT22;6874;52.084;5.090;2022-08-23T05:22:45;20.30;71.50
13606;DHT22;6874;52.084;5.090;2022-08-23T05:25:11;20.30;71.60
13606;DHT22;6874;52.084;5.090;2022-08-23T05:27:37;20.30;71.50
13606;DHT22;6874;52.084;5.090;2022-08-23T05:30:04;20.30;71.60
13606;DHT22;6874;52.084;5.090;2022-08-23T05:32:30;20.30;71.60
13606;DHT22;6874;52.084;5.090;2022-08-23T05:34:56;20.30;71.70
13606;DHT22;6874;52.084;5.090;2022-08-23T05:37:22;20.30;71.60
13606;DHT22;6874;52.084;5.090;2022-08-23T05:39:47;20.30;71.60
13606;DHT22;6874;52.084;5.090;2022-08-23T05:42:14;20.30;71.50
13606;DHT22;6874;52.084;5.090;2022-08-23T05:44:40;20.30;71.60
13606;DHT22;6874;52.084;5.090;2022-08-23T05:47:08;20.20;71.50
13606;DHT22;6874;52.084;5.090;2022-08-23T05:49:35;20.20;71.50
13606;DHT22;6874;52.084;5.090;2022-08-23T05:52:02;20.30;71.60
13606;DHT22;6874;52.084;5.090;2022-08-23T05:54:28;20.30;71.70
13606;DHT22;6874;52.084;5.090;2022-08-23T05:56:54;20.30;71.60
13606;DHT22;6874;52.084;5.090;2022-08-23T05:59:20;20.30;71.60
13606;DHT22;6874;52.084;5.090;2022-08-23T06:01:46;20.30;71.60
13606;DHT22;6874;52.084;5.090;2022-08-23T06:04:12;20.30;71.60
13606;DHT22;6874;52.084;5.090;2022-08-23T06:06:38;20.30;71.80
13606;DHT22;6874;52.084;5.090;2022-08-23T06:09:09;20.30;71.50
13606;DHT22;6874;52.084;5.090;2022-08-23T06:11:36;20.30;71.50
13606;DHT22;6874;52.084;5.090;2022-08-23T06:14:04;20.40;71.60
13606;DHT22;6874;52.084;5.090;2022-08-23T06:16:36;20.40;71.50
13606;DHT22;6874;52.084;5.090;2022-08-23T06:19:03;20.40;71.50
13606;DHT22;6874;52.084;5.090;2022-08-23T06:21:30;20.40;71.50
13606;DHT22;6874;52.084;5.090;2022-08-23T06:23:56;20.50;71.60
13606;DHT22;6874;52.084;5.090;2022-08-23T06:26:31;20.40;71.50
13606;DHT22;6874;52.084;5.090;2022-08-23T06:28:59;20.40;71.50
13606;DHT22;6874;52.084;5.090;2022-08-23T06:31:27;20.50;71.70
13606;DHT22;6874;52.084;5.090;2022-08-23T06:34:16;20.50;71.70
13606;DHT22;6874;52.084;5.090;2022-08-23T06:36:43;20.50;71.70
13606;DHT22;6874;52.084;5.090;2022-08-23T06:39:10;20.60;71.60
13606;DHT22;6874;52.084;5.090;2022-08-23T06:41:36;20.60;71.60
13606;DHT22;6874;52.084;5.090;2022-08-23T06:44:02;20.60;71.60
13606;DHT22;6874;52.084;5.090;2022-08-23T06:46:29;20.60;72.40
13606;DHT22;6874;52.084;5.090;2022-08-23T06:48:56;20.60;71.70
13606;DHT22;6874;52.084;5.090;2022-08-23T06:51:41;20.60;71.80
13606;DHT22;6874;52.084;5.090;2022-08-23T06:54:09;20.70;72.30
13606;DHT22;6874;52.084;5.090;2022-08-23T06:56:36;20.60;72.10
13606;DHT22;6874;52.084;5.090;2022-08-23T06:59:03;20.70;72.20
13606;DHT22;6874;52.084;5.090;2022-08-23T07:01:46;20.70;72.30
13606;DHT22;6874;52.084;5.090;2022-08-23T07:04:16;20.70;72.30
13606;DHT22;6874;52.084;5.090;2022-08-23T07:06:41;20.80;72.40
13606;DHT22;6874;52.084;5.090;2022-08-23T07:09:07;20.80;72.40
13606;DHT22;6874;52.084;5.090;2022-08-23T07:11:33;20.80;72.30
13606;DHT22;6874;52.084;5.090;2022-08-23T07:13:59;20.80;72.40
13606;DHT22;6874;52.084;5.090;2022-08-23T07:16:32;20.90;72.50
13606;DHT22;6874;52.084;5.090;2022-08-23T07:18:58;20.90;72.40
13606;DHT22;6874;52.084;5.090;2022-08-23T07:21:24;20.90;72.40
13606;DHT22;6874;52.084;5.090;2022-08-23T07:23:49;20.90;72.40
13606;DHT22;6874;52.084;5.090;2022-08-23T07:26:16;20.90;72.30
13606;DHT22;6874;52.084;5.090;2022-08-23T07:28:46;21.00;72.40
13606;DHT22;6874;52.084;5.090;2022-08-23T07:31:15;21.00;72.50
13606;DHT22;6874;52.084;5.090;2022-08-23T07:33:42;21.10;72.70
13606;DHT22;6874;52.084;5.090;2022-08-23T07:36:08;21.10;72.70
13606;DHT22;6874;52.084;5.090;2022-08-23T07:38:34;21.10;72.70
13606;DHT22;6874;52.084;5.090;2022-08-23T07:41:03;21.20;74.80
13606;DHT22;6874;52.084;5.090;2022-08-23T07:43:32;21.30;74.70
13606;DHT22;6874;52.084;5.090;2022-08-23T07:45:59;21.40;74.40
13606;DHT22;6874;52.084;5.090;2022-08-23T07:48:25;21.40;74.50
13606;DHT22;6874;52.084;5.090;2022-08-23T07:50:56;21.50;74.40
13606;DHT22;6874;52.084;5.090;2022-08-23T07:53:22;21.50;74.90
13606;DHT22;6874;52.084;5.090;2022-08-23T07:55:48;21.60;74.60
13606;DHT22;6874;52.084;5.090;2022-08-23T07:58:13;21.60;74.60
13606;DHT22;6874;52.084;5.090;2022-08-23T08:00:39;21.70;74.70
13606;DHT22;6874;52.084;5.090;2022-08-23T08:03:05;21.80;74.80
13606;DHT22;6874;52.084;5.090;2022-08-23T08:05:31;21.80;74.60
13606;DHT22;6874;52.084;5.090;2022-08-23T08:07:57;21.90;75.30
13606;DHT22;6874;52.084;5.090;2022-08-23T08:10:23;21.90;75.00
13606;DHT22;6874;52.084;5.090;2022-08-23T08:12:48;22.00;75.00
13606;DHT22;6874;52.084;5.090;2022-08-23T08:15:15;22.00;74.70
13606;DHT22;6874;52.084;5.090;2022-08-23T08:17:40;22.20;75.00
13606;DHT22;6874;52.084;5.090;2022-08-23T08:20:06;22.20;74.70
13606;DHT22;6874;52.084;5.090;2022-08-23T08:22:32;22.20;74.40
13606;DHT22;6874;52.084;5.090;2022-08-23T08:24:58;22.30;74.40
13606;DHT22;6874;52.084;5.090;2022-08-23T08:27:23;22.30;74.10
13606;DHT22;6874;52.084;5.090;2022-08-23T08:29:49;22.30;74.10
13606;DHT22;6874;52.084;5.090;2022-08-23T08:32:14;22.40;74.10
13606;DHT22;6874;52.084;5.090;2022-08-23T08:34:40;22.40;74.00
13606;DHT22;6874;52.084;5.090;2022-08-23T08:37:06;22.40;73.80
13606;DHT22;6874;52.084;5.090;2022-08-23T08:39:32;22.40;73.70
13606;DHT22;6874;52.084;5.090;2022-08-23T08:45:03;22.40;73.60
13606;DHT22;6874;52.084;5.090;2022-08-23T08:47:45;22.50;73.70
13606;DHT22;6874;52.084;5.090;2022-08-23T08:50:28;22.50;73.70
13606;DHT22;6874;52.084;5.090;2022-08-23T08:53:12;22.50;73.60
13606;DHT22;6874;52.084;5.090;2022-08-23T08:55:45;22.60;73.70
13606;DHT22;6874;52.084;5.090;2022-08-23T08:58:23;22.60;73.50
13606;DHT22;6874;52.084;5.090;2022-08-23T09:00:50;22.60;73.30
13606;DHT22;6874;52.084;5.090;2022-08-23T09:03:18;22.60;73.40
13606;DHT22;6874;52.084;5.090;2022-08-23T09:11:42;22.80;73.20
13606;DHT22;6874;52.084;5.090;2022-08-23T09:17:20;22.90;73.40
13606;DHT22;6874;52.084;5.090;2022-08-23T09:19:54;23.00;73.50
13606;DHT22;6874;52.084;5.090;2022-08-23T09:22:35;23.00;73.70
13606;DHT22;6874;52.084;5.090;2022-08-23T09:25:08;23.10;74.00
13606;DHT22;6874;52.084;5.090;2022-08-23T09:27:42;23.20;74.30
13606;DHT22;6874;52.084;5.090;2022-08-23T09:30:11;23.30;74.80
13606;DHT22;6874;52.084;5.090;2022-08-23T09:32:47;23.40;74.80
13606;DHT22;6874;52.084;5.090;2022-08-23T09:35:23;23.40;74.70
13606;DHT22;6874;52.084;5.090;2022-08-23T09:37:59;23.50;74.60
13606;DHT22;6874;52.084;5.090;2022-08-23T09:40:35;23.60;74.60
13606;DHT22;6874;52.084;5.090;2022-08-23T09:43:21;23.70;74.90
13606;DHT22;6874;52.084;5.090;2022-08-23T09:45:59;23.80;75.10
13606;DHT22;6874;52.084;5.090;2022-08-23T09:48:38;24.00;75.30
13606;DHT22;6874;52.084;5.090;2022-08-23T09:51:28;24.10;75.20
13606;DHT22;6874;52.084;5.090;2022-08-23T09:56:35;24.40;75.40
13606;DHT22;6874;52.084;5.090;2022-08-23T09:59:40;24.60;76.30
13606;DHT22;6874;52.084;5.090;2022-08-23T10:02:24;24.80;76.00
13606;DHT22;6874;52.084;5.090;2022-08-23T10:07:40;25.10;75.70
13606;DHT22;6874;52.084;5.090;2022-08-23T10:10:21;25.20;75.50
13606;DHT22;6874;52.084;5.090;2022-08-23T10:12:54;25.40;75.00
13606;DHT22;6874;52.084;5.090;2022-08-23T10:26:50;25.90;74.50
13606;DHT22;6874;52.084;5.090;2022-08-23T10:29:35;26.10;74.40
13606;DHT22;6874;52.084;5.090;2022-08-23T10:32:37;26.20;74.60
13606;DHT22;6874;52.084;5.090;2022-08-23T10:38:22;26.50;74.40
13606;DHT22;6874;52.084;5.090;2022-08-23T10:46:40;27.00;73.60
13606;DHT22;6874;52.084;5.090;2022-08-23T10:49:12;27.20;73.30
13606;DHT22;6874;52.084;5.090;2022-08-23T10:51:42;27.30;73.00
13606;DHT22;6874;52.084;5.090;2022-08-23T10:54:14;27.50;72.50
13606;DHT22;6874;52.084;5.090;2022-08-23T10:56:41;27.60;72.10
13606;DHT22;6874;52.084;5.090;2022-08-23T10:59:13;27.70;71.70
13606;DHT22;6874;52.084;5.090;2022-08-23T11:01:57;27.90;71.40
13606;DHT22;6874;52.084;5.090;2022-08-23T11:04:45;28.10;71.00
13606;DHT22;6874;52.084;5.090;2022-08-23T11:07:28;28.20;70.40
13606;DHT22;6874;52.084;5.090;2022-08-23T11:10:16;28.40;70.00
13606;DHT22;6874;52.084;5.090;2022-08-23T11:15:45;28.60;68.10
13606;DHT22;6874;52.084;5.090;2022-08-23T11:23:46;29.00;67.00
13606;DHT22;6874;52.084;5.090;2022-08-23T11:28:51;29.10;65.20
13606;DHT22;6874;52.084;5.090;2022-08-23T11:31:21;29.10;64.80
13606;DHT22;6874;52.084;5.090;2022-08-23T11:33:52;29.20;64.50
13606;DHT22;6874;52.084;5.090;2022-08-23T11:36:25;29.10;64.30
13606;DHT22;6874;52.084;5.090;2022-08-23T11:41:27;29.20;64.00
13606;DHT22;6874;52.084;5.090;2022-08-23T11:51:50;29.30;63.50
13606;DHT22;6874;52.084;5.090;2022-08-23T11:54:31;29.40;63.10
13606;DHT22;6874;52.084;5.090;2022-08-23T12:00:17;29.50;62.60
13606;DHT22;6874;52.084;5.090;2022-08-23T12:03:04;29.60;62.90
13606;DHT22;6874;52.084;5.090;2022-08-23T12:16:09;29.60;61.50
13606;DHT22;6874;52.084;5.090;2022-08-23T12:21:05;29.60;62.10
13606;DHT22;6874;52.084;5.090;2022-08-23T12:23:44;29.50;61.70
13606;DHT22;6874;52.084;5.090;2022-08-23T12:26:45;29.50;61.70
13606;DHT22;6874;52.084;5.090;2022-08-23T12:29:42;29.40;60.60
13606;DHT22;6874;52.084;5.090;2022-08-23T12:35:08;29.30;61.00
13606;DHT22;6874;52.084;5.090;2022-08-23T12:37:55;29.30;62.10
13606;DHT22;6874;52.084;5.090;2022-08-23T12:40:50;29.30;61.50
13606;DHT22;6874;52.084;5.090;2022-08-23T12:45:46;29.20;62.70
13606;DHT22;6874;52.084;5.090;2022-08-23T12:48:15;29.20;62.80
13606;DHT22;6874;52.084;5.090;2022-08-23T12:50:43;29.10;63.50
13606;DHT22;6874;52.084;5.090;2022-08-23T12:53:13;29.10;63.30
13606;DHT22;6874;52.084;5.090;2022-08-23T12:55:42;29.10;63.70
13606;DHT22;6874;52.084;5.090;2022-08-23T12:58:09;29.10;63.80
13606;DHT22;6874;52.084;5.090;2022-08-23T13:00:39;29.00;64.10
13606;DHT22;6874;52.084;5.090;2022-08-23T13:03:20;29.10;64.30
13606;DHT22;6874;52.084;5.090;2022-08-23T13:08:20;29.10;64.80
13606;DHT22;6874;52.084;5.090;2022-08-23T13:10:47;29.10;65.10
13606;DHT22;6874;52.084;5.090;2022-08-23T13:13:25;29.10;64.60
13606;DHT22;6874;52.084;5.090;2022-08-23T13:15:57;29.10;65.10
13606;DHT22;6874;52.084;5.090;2022-08-23T13:23:55;29.20;64.20
13606;DHT22;6874;52.084;5.090;2022-08-23T13:34:39;29.20;64.60
13606;DHT22;6874;52.084;5.090;2022-08-23T13:37:20;29.20;64.30
13606;DHT22;6874;52.084;5.090;2022-08-23T13:39:59;29.20;64.40
13606;DHT22;6874;52.084;5.090;2022-08-23T13:42:51;29.20;63.80
13606;DHT22;6874;52.084;5.090;2022-08-23T13:45:25;29.10;63.90
13606;DHT22;6874;52.084;5.090;2022-08-23T13:48:39;29.20;65.10
13606;DHT22;6874;52.084;5.090;2022-08-23T13:50:43;29.20;65.20
13606;DHT22;6874;52.084;5.090;2022-08-23T13:53:10;29.20;65.20
13606;DHT22;6874;52.084;5.090;2022-08-23T13:55:51;29.20;65.40
13606;DHT22;6874;52.084;5.090;2022-08-23T13:58:30;29.20;65.60
13606;DHT22;6874;52.084;5.090;2022-08-23T14:00:58;29.30;65.20
13606;DHT22;6874;52.084;5.090;2022-08-23T14:03:25;29.40;66.10
13606;DHT22;6874;52.084;5.090;2022-08-23T14:05:51;29.40;65.70
13606;DHT22;6874;52.084;5.090;2022-08-23T14:08:18;29.40;65.20
13606;DHT22;6874;52.084;5.090;2022-08-23T14:10:44;29.50;64.00
13606;DHT22;6874;52.084;5.090;2022-08-23T14:13:11;29.50;64.70
13606;DHT22;6874;52.084;5.090;2022-08-23T14:15:39;29.60;63.80
13606;DHT22;6874;52.084;5.090;2022-08-23T14:18:05;29.60;65.10
13606;DHT22;6874;52.084;5.090;2022-08-23T14:20:31;29.60;65.30
13606;DHT22;6874;52.084;5.090;2022-08-23T14:22:56;29.60;64.70
13606;DHT22;6874;52.084;5.090;2022-08-23T14:25:22;29.70;64.80
13606;DHT22;6874;52.084;5.090;2022-08-23T14:27:48;29.70;64.40
13606;DHT22;6874;52.084;5.090;2022-08-23T14:30:31;29.70;65.20
13606;DHT22;6874;52.084;5.090;2022-08-23T14:32:58;29.80;64.90
13606;DHT22;6874;52.084;5.090;2022-08-23T14:35:24;29.70;64.70
13606;DHT22;6874;52.084;5.090;2022-08-23T14:37:49;29.80;64.00
13606;DHT22;6874;52.084;5.090;2022-08-23T14:40:16;29.80;65.10
13606;DHT22;6874;52.084;5.090;2022-08-23T14:42:42;29.90;65.20
13606;DHT22;6874;52.084;5.090;2022-08-23T14:45:09;29.90;65.30
13606;DHT22;6874;52.084;5.090;2022-08-23T14:47:35;29.90;65.90
13606;DHT22;6874;52.084;5.090;2022-08-23T14:50:02;30.00;64.10
13606;DHT22;6874;52.084;5.090;2022-08-23T14:52:28;30.00;64.10
13606;DHT22;6874;52.084;5.090;2022-08-23T14:54:54;30.00;64.40
13606;DHT22;6874;52.084;5.090;2022-08-23T14:57:20;30.00;64.60
13606;DHT22;6874;52.084;5.090;2022-08-23T14:59:45;30.10;63.80
13606;DHT22;6874;52.084;5.090;2022-08-23T15:02:12;30.10;64.50
13606;DHT22;6874;52.084;5.090;2022-08-23T15:04:41;30.10;64.70
13606;DHT22;6874;52.084;5.090;2022-08-23T15:07:06;30.20;64.20
13606;DHT22;6874;52.084;5.090;2022-08-23T15:09:32;30.10;64.70
13606;DHT22;6874;52.084;5.090;2022-08-23T15:11:58;30.20;65.00
13606;DHT22;6874;52.084;5.090;2022-08-23T15:14:24;30.10;65.10
13606;DHT22;6874;52.084;5.090;2022-08-23T15:16:49;30.20;64.90
13606;DHT22;6874;52.084;5.090;2022-08-23T15:19:15;30.20;64.10
13606;DHT22;6874;52.084;5.090;2022-08-23T15:21:40;30.20;64.00
13606;DHT22;6874;52.084;5.090;2022-08-23T15:24:06;30.10;63.90
13606;DHT22;6874;52.084;5.090;2022-08-23T15:26:32;30.10;63.80
13606;DHT22;6874;52.084;5.090;2022-08-23T15:29:00;30.20;63.20
13606;DHT22;6874;52.084;5.090;2022-08-23T15:31:26;30.10;63.40
13606;DHT22;6874;52.084;5.090;2022-08-23T15:33:52;30.20;64.40
13606;DHT22;6874;52.084;5.090;2022-08-23T15:36:18;30.20;64.00
13606;DHT22;6874;52.084;5.090;2022-08-23T15:38:45;30.10;64.60
13606;DHT22;6874;52.084;5.090;2022-08-23T15:41:16;30.10;64.40
13606;DHT22;6874;52.084;5.090;2022-08-23T15:43:42;30.10;64.50
13606;DHT22;6874;52.084;5.090;2022-08-23T15:46:11;30.10;63.50
13606;DHT22;6874;52.084;5.090;2022-08-23T15:48:46;30.00;63.10
13606;DHT22;6874;52.084;5.090;2022-08-23T15:51:14;30.00;64.10
13606;DHT22;6874;52.084;5.090;2022-08-23T15:53:40;30.00;63.50
13606;DHT22;6874;52.084;5.090;2022-08-23T15:56:14;29.90;64.10
13606;DHT22;6874;52.084;5.090;2022-08-23T15:58:40;29.90;63.80
13606;DHT22;6874;52.084;5.090;2022-08-23T16:01:07;29.90;64.10
13606;DHT22;6874;52.084;5.090;2022-08-23T16:03:34;29.80;63.00
13606;DHT22;6874;52.084;5.090;2022-08-23T16:06:01;29.80;63.80
13606;DHT22;6874;52.084;5.090;2022-08-23T16:08:30;29.80;63.80
13606;DHT22;6874;52.084;5.090;2022-08-23T16:10:57;29.70;63.20
13606;DHT22;6874;52.084;5.090;2022-08-23T16:13:23;29.80;63.50
13606;DHT22;6874;52.084;5.090;2022-08-23T16:15:49;29.70;63.90
13606;DHT22;6874;52.084;5.090;2022-08-23T16:18:15;29.70;64.10
13606;DHT22;6874;52.084;5.090;2022-08-23T16:20:42;29.70;64.60
13606;DHT22;6874;52.084;5.090;2022-08-23T16:23:07;29.70;64.50
13606;DHT22;6874;52.084;5.090;2022-08-23T16:25:33;29.60;64.70
13606;DHT22;6874;52.084;5.090;2022-08-23T16:27:59;29.70;64.50
13606;DHT22;6874;52.084;5.090;2022-08-23T16:30:25;29.60;64.20
13606;DHT22;6874;52.084;5.090;2022-08-23T16:32:53;29.60;63.90
13606;DHT22;6874;52.084;5.090;2022-08-23T16:35:19;29.60;64.10
13606;DHT22;6874;52.084;5.090;2022-08-23T16:37:44;29.60;64.30
13606;DHT22;6874;52.084;5.090;2022-08-23T16:40:10;29.60;64.00
13606;DHT22;6874;52.084;5.090;2022-08-23T16:42:36;29.50;64.20
13606;DHT22;6874;52.084;5.090;2022-08-23T16:45:02;29.40;64.30
13606;DHT22;6874;52.084;5.090;2022-08-23T16:47:30;29.40;64.40
13606;DHT22;6874;52.084;5.090;2022-08-23T16:49:57;29.40;64.40
13606;DHT22;6874;52.084;5.090;2022-08-23T16:52:23;29.30;64.40
13606;DHT22;6874;52.084;5.090;2022-08-23T16:54:48;29.30;64.40
13606;DHT22;6874;52.084;5.090;2022-08-23T16:57:14;29.20;64.40
13606;DHT22;6874;52.084;5.090;2022-08-23T16:59:42;29.20;64.70
13606;DHT22;6874;52.084;5.090;2022-08-23T17:02:35;29.10;64.90
13606;DHT22;6874;52.084;5.090;2022-08-23T17:05:04;29.10;64.90
13606;DHT22;6874;52.084;5.090;2022-08-23T17:07:30;29.10;65.20
13606;DHT22;6874;52.084;5.090;2022-08-23T17:09:55;29.00;65.20
13606;DHT22;6874;52.084;5.090;2022-08-23T17:12:21;29.00;65.30
13606;DHT22;6874;52.084;5.090;2022-08-23T17:14:46;29.00;65.30
13606;DHT22;6874;52.084;5.090;2022-08-23T17:17:13;28.90;65.40
13606;DHT22;6874;52.084;5.090;2022-08-23T17:19:39;28.90;65.40
13606;DHT22;6874;52.084;5.090;2022-08-23T17:22:05;28.80;65.30
13606;DHT22;6874;52.084;5.090;2022-08-23T17:24:31;28.70;65.20
13606;DHT22;6874;52.084;5.090;2022-08-23T17:26:57;28.80;65.40
13606;DHT22;6874;52.084;5.090;2022-08-23T17:29:22;28.70;65.50
13606;DHT22;6874;52.084;5.090;2022-08-23T17:31:48;28.70;65.40
13606;DHT22;6874;52.084;5.090;2022-08-23T17:34:14;28.60;65.50
13606;DHT22;6874;52.084;5.090;2022-08-23T17:36:42;28.60;65.60
13606;DHT22;6874;52.084;5.090;2022-08-23T17:39:10;28.60;65.70
13606;DHT22;6874;52.084;5.090;2022-08-23T17:41:37;28.50;65.60